Time;durP1;ratioP1;P1;durP2;ratioP2;P2;SDS_P1;SDS_P2;PMS_P1;PMS_P2;Temp;Humidity;BMP_temperature;BMP_pressure;BME280_temperature;BME280_humidity;BME280_pressure;Samples;Min_cycle;Max_cycle;Signal;HPM_P1;HPM_P2
2020/12/12 00:00:26;;;;;;;5.20;4.70;;;;;;;6.40;89.06;94217.19;5072448;28;20316;-65
2020/12/12 00:02:52;;;;;;;6.27;5.67;;;;;;;6.22;90.46;94221.81;5072969;28;20518;-65
2020/12/12 00:05:17;;;;;;;7.03;6.13;;;;;;;6.37;88.54;94209.91;5077984;28;20178;-66
2020/12/12 00:07:42;;;;;;;6.33;5.73;;;;;;;6.35;89.16;94217.19;5092748;28;20253;-64
2020/12/12 00:10:08;;;;;;;7.57;5.80;;;;;;;6.21;89.36;94219.47;5080072;28;20203;-65
2020/12/12 00:12:35;;;;;;;5.70;5.20;;;;;;;6.38;89.67;94216.69;5072777;28;20170;-64
2020/12/12 00:15:00;;;;;;;6.50;6.00;;;;;;;6.52;88.83;94208.16;5088469;28;20648;-65
2020/12/12 00:17:26;;;;;;;6.23;5.27;;;;;;;6.50;89.43;94212.06;5092248;28;20423;-65
2020/12/12 00:19:51;;;;;;;5.63;5.13;;;;;;;6.65;88.03;94206.94;5083566;28;20699;-63
2020/12/12 00:22:16;;;;;;;5.23;4.73;;;;;;;6.69;88.71;94213.97;5076207;28;20198;-65
2020/12/12 00:24:42;;;;;;;6.33;5.73;;;;;;;6.81;88.06;94200.72;5076463;28;20669;-66
2020/12/12 00:27:07;;;;;;;5.77;5.17;;;;;;;6.77;86.50;94204.88;5075880;28;20189;-66
2020/12/12 00:29:33;;;;;;;6.77;5.97;;;;;;;6.88;86.97;94204.69;5076317;28;20194;-65
2020/12/12 00:31:59;;;;;;;6.30;5.70;;;;;;;6.67;88.15;94208.22;5077106;28;20206;-64
2020/12/12 00:34:26;;;;;;;6.40;4.97;;;;;;;6.85;87.76;94206.97;5083000;28;20262;-65
2020/12/12 00:36:52;;;;;;;5.90;5.30;;;;;;;6.82;86.69;94200.47;5075753;28;20425;-64
2020/12/12 00:39:18;;;;;;;6.90;6.20;;;;;;;6.95;86.45;94196.59;5076095;28;20460;-65
2020/12/12 00:41:44;;;;;;;6.23;5.30;;;;;;;6.71;86.40;94195.44;5075942;28;20641;-64
2020/12/12 00:44:10;;;;;;;5.37;4.87;;;;;;;6.84;87.75;94198.38;5075984;28;20409;-65
2020/12/12 00:46:37;;;;;;;6.70;5.10;;;;;;;6.62;86.89;94192.56;5095298;28;20632;-66
2020/12/12 00:49:03;;;;;;;6.77;5.07;;;;;;;6.73;87.94;94194.16;5085443;28;20445;-64
2020/12/12 00:51:29;;;;;;;5.97;5.37;;;;;;;6.97;86.78;94190.09;5075847;28;20950;-64
2020/12/12 00:53:54;;;;;;;5.80;5.20;;;;;;;7.02;86.53;94192.69;5091836;28;20456;-65
2020/12/12 00:56:20;;;;;;;5.90;5.27;;;;;;;6.83;87.17;94194.19;5095756;28;20695;-73
2020/12/12 00:58:45;;;;;;;5.77;5.17;;;;;;;6.95;86.72;94189.56;5094112;28;20280;-63
2020/12/12 01:01:12;;;;;;;5.53;4.90;;;;;;;6.86;86.85;94185.06;5095797;28;20193;-66
2020/12/12 01:03:39;;;;;;;6.00;4.43;;;;;;;6.89;86.95;94189.78;5085116;28;20701;-66
2020/12/12 01:06:09;;;;;;;4.83;4.30;;;;;;;6.83;86.71;94190.81;5075485;28;20453;-63
2020/12/12 01:08:34;;;;;;;4.50;4.10;;;;;;;6.85;86.85;94193.94;5075341;28;20417;-66
2020/12/12 01:11:00;;;;;;;4.73;3.87;;;;;;;6.81;86.58;94200.72;5075200;28;20434;-65
2020/12/12 01:13:25;;;;;;;4.63;4.23;;;;;;;6.95;86.70;94201.81;5076430;28;20179;-65
2020/12/12 01:15:50;;;;;;;5.43;4.90;;;;;;;6.79;87.46;94198.38;5075148;28;20549;-66
2020/12/12 01:18:16;;;;;;;4.80;4.27;;;;;;;6.81;86.89;94211.16;5074549;28;20194;-63
2020/12/12 01:20:41;;;;;;;4.80;4.40;;;;;;;6.63;87.07;94212.38;5075298;28;20545;-63
2020/12/12 01:23:07;;;;;;;4.77;4.27;;;;;;;6.63;87.95;94214.97;5075079;28;20588;-63
2020/12/12 01:25:32;;;;;;;5.80;5.20;;;;;;;6.66;87.37;94218.91;5075412;28;20221;-63
2020/12/12 01:27:58;;;;;;;6.63;5.93;;;;;;;6.64;88.91;94223.59;5080447;28;20238;-65
2020/12/12 01:30:23;;;;;;;5.23;4.83;;;;;;;6.86;86.83;94219.81;5095144;28;20580;-63
2020/12/12 01:32:49;;;;;;;5.90;5.23;;;;;;;7.01;86.46;94225.06;5094941;28;20213;-64
2020/12/12 01:35:14;;;;;;;6.60;5.90;;;;;;;7.07;86.20;94223.25;5095475;28;20174;-66
2020/12/12 01:37:43;;;;;;;6.77;5.50;;;;;;;7.16;85.71;94219.88;5090100;28;20266;-67
2020/12/12 01:40:09;;;;;;;6.30;5.70;;;;;;;7.25;85.12;94222.78;5094358;28;20198;-65
2020/12/12 01:42:34;;;;;;;5.93;5.33;;;;;;;7.29;84.86;94219.41;5095078;28;20408;-63
2020/12/12 01:45:00;;;;;;;6.63;5.83;;;;;;;7.31;84.65;94221.75;5095031;28;20662;-66
2020/12/12 01:47:26;;;;;;;5.83;5.30;;;;;;;7.27;84.94;94221.50;5094576;28;20174;-63
2020/12/12 01:49:53;;;;;;;5.97;5.30;;;;;;;7.33;84.86;94219.69;5095002;28;20190;-66
2020/12/12 01:52:19;;;;;;;7.00;5.70;;;;;;;6.87;86.10;94218.75;5090990;28;20513;-63
2020/12/12 01:54:48;;;;;;;5.60;5.10;;;;;;;6.89;85.93;94221.09;5074455;28;20428;-64
2020/12/12 01:57:18;;;;;;;5.30;4.73;;;;;;;7.05;85.12;94225.31;5074663;28;20412;-65
2020/12/12 01:59:43;;;;;;;5.73;5.13;;;;;;;6.86;86.01;94222.41;5074310;28;20467;-66
2020/12/12 02:02:11;;;;;;;7.10;5.43;;;;;;;6.92;86.04;94226.59;5074644;28;20772;-65
2020/12/12 02:04:38;;;;;;;7.13;5.37;;;;;;;6.90;85.34;94225.28;5074743;28;20171;-65
2020/12/12 02:07:03;;;;;;;5.80;5.30;;;;;;;6.89;86.37;94226.31;5074882;28;20779;-66
2020/12/12 02:09:29;;;;;;;5.87;5.27;;;;;;;6.82;86.61;94228.38;5074531;28;20436;-64
2020/12/12 02:11:56;;;;;;;6.13;5.47;;;;;;;6.75;86.13;94225.22;5073934;28;20175;-66
2020/12/12 02:14:22;;;;;;;5.20;4.77;;;;;;;6.81;86.40;94219.00;5073999;28;20178;-63
2020/12/12 02:16:59;;;;;;;6.33;5.27;;;;;;;6.96;85.02;94226.84;5073901;28;20428;-63
2020/12/12 02:19:25;;;;;;;5.93;5.33;;;;;;;6.89;85.06;94214.06;5074860;28;20761;-65
2020/12/12 02:21:57;;;;;;;5.20;4.70;;;;;;;6.94;85.14;94219.28;5094238;28;20446;-65
2020/12/12 02:24:23;;;;;;;5.50;5.00;;;;;;;6.96;85.38;94219.03;5094545;28;20165;-65
2020/12/12 02:26:49;;;;;;;5.73;5.17;;;;;;;6.96;84.86;94216.41;5090294;28;20425;-66
2020/12/12 02:29:14;;;;;;;6.80;5.60;;;;;;;7.09;84.54;94218.56;5073184;28;20541;-66
2020/12/12 02:31:40;;;;;;;6.70;5.33;;;;;;;7.10;84.84;94220.16;5074013;28;20186;-63
2020/12/12 02:34:06;;;;;;;5.83;5.23;;;;;;;7.08;84.47;94211.78;5073904;28;20269;-64
2020/12/12 02:36:36;;;;;;;6.10;5.37;;;;;;;7.13;85.00;94209.19;5073357;28;20190;-65
2020/12/12 02:39:04;;;;;;;6.07;5.47;;;;;;;7.19;84.25;94205.53;5073527;28;20206;-66
2020/12/12 02:41:29;;;;;;;6.07;5.47;;;;;;;7.16;84.39;94211.25;5073566;28;20397;-63
2020/12/12 02:43:55;;;;;;;9.10;5.30;;;;;;;7.22;84.20;94208.44;5073479;28;20843;-66
2020/12/12 02:46:20;;;;;;;5.40;4.90;;;;;;;7.30;84.21;94210.50;5076654;28;20184;-68
2020/12/12 02:48:48;;;;;;;6.27;5.50;;;;;;;7.21;84.51;94206.06;5086057;28;20536;-64
2020/12/12 02:51:15;;;;;;;5.77;5.27;;;;;;;7.29;84.51;94206.34;5073783;28;20565;-66
2020/12/12 02:53:45;;;;;;;7.33;5.80;;;;;;;7.34;84.34;94204.78;5073520;28;20904;-63
2020/12/12 02:56:13;;;;;;;5.87;5.20;;;;;;;7.37;83.67;94204.28;5073818;28;20410;-63
2020/12/12 02:58:39;;;;;;;7.23;5.63;;;;;;;7.37;83.94;94215.50;5073064;28;20449;-63
2020/12/12 03:01:04;;;;;;;6.10;5.50;;;;;;;7.37;83.42;94214.72;5073495;28;20795;-66
2020/12/12 03:03:29;;;;;;;5.90;5.30;;;;;;;7.28;83.64;94209.22;5073914;28;20239;-64
2020/12/12 03:05:55;;;;;;;6.90;6.17;;;;;;;7.31;83.90;94213.91;5073544;28;20176;-65
2020/12/12 03:08:20;;;;;;;6.67;6.07;;;;;;;7.36;84.21;94211.31;5071772;28;20506;-63
2020/12/12 03:10:45;;;;;;;6.83;6.23;;;;;;;7.39;84.27;94212.63;5073324;28;20194;-66
2020/12/12 03:13:11;;;;;;;6.10;5.50;;;;;;;7.41;84.16;94216.53;5073154;28;20683;-65
2020/12/12 03:15:36;;;;;;;6.17;5.60;;;;;;;7.40;83.21;94219.41;5073460;28;20173;-63
2020/12/12 03:18:02;;;;;;;9.13;6.43;;;;;;;7.40;83.40;94220.22;5072516;28;20522;-69
2020/12/12 03:20:27;;;;;;;7.80;6.33;;;;;;;7.39;84.02;94212.63;5091634;28;20208;-64
2020/12/12 03:22:52;;;;;;;8.07;6.27;;;;;;;7.46;83.34;94210.56;5093603;28;20167;-66
2020/12/12 03:25:18;;;;;;;6.77;6.10;;;;;;;7.32;83.21;94213.66;5093432;28;20655;-66
2020/12/12 03:27:43;;;;;;;7.50;6.67;;;;;;;7.02;84.04;94216.19;5092860;28;20217;-63
2020/12/12 03:30:09;;;;;;;8.67;6.77;;;;;;;6.90;84.91;94220.06;5093184;28;20651;-63
2020/12/12 03:32:34;;;;;;;6.87;6.10;;;;;;;7.00;85.20;94225.31;5089832;28;20186;-66
2020/12/12 03:34:59;;;;;;;8.87;7.47;;;;;;;7.00;84.93;94220.88;5093047;28;20178;-66
2020/12/12 03:37:25;;;;;;;7.27;6.57;;;;;;;6.93;84.70;94219.56;5071951;28;20214;-63
2020/12/12 03:39:50;;;;;;;7.50;6.80;;;;;;;6.51;86.49;94224.06;5073011;28;20229;-63
2020/12/12 03:42:16;;;;;;;9.63;7.20;;;;;;;6.61;86.21;94230.13;5073197;28;20575;-63
2020/12/12 03:44:42;;;;;;;7.50;6.80;;;;;;;6.75;86.11;94225.22;5073050;28;20253;-65
2020/12/12 03:47:07;;;;;;;8.67;7.17;;;;;;;6.96;85.24;94224.25;5072484;28;20261;-65
2020/12/12 03:49:33;;;;;;;7.90;7.03;;;;;;;7.02;85.50;94221.41;5079823;28;20454;-63
2020/12/12 03:51:59;;;;;;;7.73;6.77;;;;;;;7.13;84.31;94227.44;5095633;28;20204;-63
2020/12/12 03:54:24;;;;;;;10.53;8.30;;;;;;;7.03;84.66;94230.00;5097257;28;20174;-63
2020/12/12 03:56:50;;;;;;;10.23;7.83;;;;;;;6.81;85.48;94234.66;5096903;28;20482;-63
2020/12/12 03:59:15;;;;;;;15.77;8.13;;;;;;;6.91;86.14;94234.69;5097000;28;20214;-63
2020/12/12 04:01:40;;;;;;;7.43;6.73;;;;;;;6.84;84.95;94231.53;5097165;28;20249;-65
2020/12/12 04:04:06;;;;;;;7.47;6.67;;;;;;;6.20;87.70;94236.13;5079807;28;20258;-65
2020/12/12 04:06:33;;;;;;;9.90;7.43;;;;;;;6.43;87.35;94234.97;5076304;28;20686;-64
2020/12/12 04:08:58;;;;;;;7.93;6.93;;;;;;;6.55;87.19;94236.34;5076468;28;20286;-63
2020/12/12 04:11:24;;;;;;;9.07;7.37;;;;;;;6.32;87.84;94241.97;5076788;28;20409;-65
2020/12/12 04:13:49;;;;;;;7.80;7.00;;;;;;;6.31;89.01;94234.34;5076697;28;20250;-63
2020/12/12 04:16:14;;;;;;;9.60;7.30;;;;;;;6.20;88.37;94242.13;5076910;28;20182;-66
2020/12/12 04:18:40;;;;;;;6.50;5.87;;;;;;;5.93;90.38;94238.81;5075971;28;20210;-63
2020/12/12 04:21:07;;;;;;;7.80;7.10;;;;;;;6.27;88.50;94238.53;5075971;28;20181;-66
2020/12/12 04:23:32;;;;;;;8.90;7.63;;;;;;;6.08;90.25;94241.53;5076657;28;20228;-64
2020/12/12 04:25:58;;;;;;;8.50;6.50;;;;;;;6.07;90.87;94239.16;5076507;28;20903;-63
2020/12/12 04:28:23;;;;;;;7.17;6.47;;;;;;;5.80;91.44;94238.41;5075422;28;20185;-66
2020/12/12 04:30:48;;;;;;;7.80;6.70;;;;;;;6.07;90.34;94236.56;5076126;28;20206;-64
2020/12/12 04:33:14;;;;;;;8.43;7.10;;;;;;;6.10;89.80;94242.06;5092139;28;20177;-66
2020/12/12 04:35:39;;;;;;;8.97;7.37;;;;;;;6.18;90.47;94238.19;5096367;28;20177;-66
2020/12/12 04:38:05;;;;;;;8.67;7.73;;;;;;;5.91;91.44;94242.69;5094154;28;20247;-64
2020/12/12 04:40:30;;;;;;;7.07;6.30;;;;;;;5.99;90.56;94232.59;5075591;28;20197;-65
2020/12/12 04:42:56;;;;;;;8.33;6.70;;;;;;;5.92;91.73;94239.06;5076015;28;20177;-64
2020/12/12 04:45:22;;;;;;;6.80;6.10;;;;;;;6.02;91.36;94236.50;5084451;28;20181;-64
2020/12/12 04:47:49;;;;;;;6.80;6.10;;;;;;;5.98;91.56;94233.63;5095702;28;20530;-65
2020/12/12 04:50:17;;;;;;;7.70;6.20;;;;;;;5.80;92.44;94246.22;5096035;28;20837;-63
2020/12/12 04:52:42;;;;;;;5.80;5.20;;;;;;;5.82;93.30;94246.75;5095982;28;20446;-65
2020/12/12 04:55:09;;;;;;;5.97;5.43;;;;;;;5.83;92.75;94248.38;5084840;28;20861;-63
2020/12/12 04:57:36;;;;;;;7.03;6.27;;;;;;;5.80;94.15;94252.22;5075491;28;20331;-64
2020/12/12 05:00:12;;;;;;;8.23;5.93;;;;;;;6.02;92.63;94246.94;5095147;28;20959;-64
2020/12/12 05:02:38;;;;;;;5.60;4.90;;;;;;;6.03;92.46;94259.72;5095045;28;20955;-65
2020/12/12 05:05:05;;;;;;;6.50;5.80;;;;;;;5.80;93.51;94251.41;5095823;28;20408;-63
2020/12/12 05:07:30;;;;;;;6.47;5.73;;;;;;;6.11;91.97;94248.84;5095262;28;20414;-66
2020/12/12 05:09:56;;;;;;;6.77;6.00;;;;;;;6.20;92.23;94251.75;5084415;28;20517;-64
2020/12/12 05:12:22;;;;;;;6.60;5.90;;;;;;;6.28;91.01;94245.31;5076824;28;20648;-63
2020/12/12 05:14:51;;;;;;;6.20;5.47;;;;;;;6.23;91.13;94251.28;5075519;28;20190;-63
2020/12/12 05:17:19;;;;;;;6.80;6.10;;;;;;;6.32;92.02;94243.78;5075044;28;20500;-65
2020/12/12 05:19:50;;;;;;;7.00;5.87;;;;;;;6.29;91.19;94244.28;5055114;28;20801;-63
2020/12/12 05:22:17;;;;;;;7.57;5.77;;;;;;;6.32;92.30;94241.97;5054992;28;20421;-63
2020/12/12 05:24:43;;;;;;;5.93;4.80;;;;;;;6.66;90.05;94250.22;5066281;28;20478;-66
2020/12/12 05:27:09;;;;;;;5.07;4.20;;;;;;;6.70;89.65;94243.47;5074584;28;20430;-65
2020/12/12 05:29:35;;;;;;;8.60;5.77;;;;;;;6.57;90.26;94251.75;5075220;28;20748;-66
2020/12/12 05:32:01;;;;;;;5.40;4.33;;;;;;;6.59;90.21;94254.88;5075257;28;20416;-65
2020/12/12 05:34:27;;;;;;;5.90;5.40;;;;;;;6.22;91.45;94254.91;5091612;28;20265;-65
2020/12/12 05:36:54;;;;;;;5.13;4.63;;;;;;;6.48;91.29;94253.25;5094911;28;20495;-66
2020/12/12 05:39:20;;;;;;;4.90;4.50;;;;;;;6.62;90.56;94257.78;5084358;28;20230;-65
2020/12/12 05:41:46;;;;;;;5.97;4.60;;;;;;;6.51;90.68;94250.13;5075808;28;20421;-63
2020/12/12 05:44:13;;;;;;;5.40;4.80;;;;;;;6.20;92.47;94252.56;5074763;28;20179;-66
2020/12/12 05:46:38;;;;;;;4.67;4.27;;;;;;;5.91;94.74;94256.50;5074418;28;20496;-66
2020/12/12 05:49:05;;;;;;;5.87;5.07;;;;;;;5.96;94.23;94253.16;5074869;28;20914;-65
2020/12/12 05:51:31;;;;;;;7.53;6.37;;;;;;;6.18;93.43;94253.84;5074765;28;20702;-63
2020/12/12 05:53:58;;;;;;;6.20;5.60;;;;;;;6.24;93.32;94253.63;5077038;28;20420;-63
2020/12/12 05:56:24;;;;;;;6.07;5.47;;;;;;;6.17;93.82;94257.50;5094292;28;20416;-64
2020/12/12 05:58:52;;;;;;;5.73;5.20;;;;;;;6.10;93.52;94246.50;5094582;28;20788;-63
2020/12/12 06:01:23;;;;;;;6.20;5.13;;;;;;;6.05;93.16;94254.28;5095101;28;20419;-65
2020/12/12 06:04:02;;;;;;;4.60;4.20;;;;;;;5.95;94.92;94265.41;5094898;28;20411;-65
2020/12/12 06:06:28;;;;;;;5.37;4.87;;;;;;;5.86;94.90;94261.69;5094523;28;20465;-63
2020/12/12 06:09:03;;;;;;;5.30;4.70;;;;;;;5.66;96.34;94271.09;5082633;28;20421;-63
2020/12/12 06:11:30;;;;;;;5.83;5.27;;;;;;;5.66;96.53;94278.91;5074260;28;20420;-63
2020/12/12 06:14:01;;;;;;;4.33;3.83;;;;;;;5.52;96.97;94270.72;5073761;28;20902;-61
2020/12/12 06:16:28;;;;;;;5.30;4.60;;;;;;;5.62;95.84;94270.81;5073459;28;20478;-65
2020/12/12 06:19:06;;;;;;;7.43;6.10;;;;;;;5.58;97.33;94274.94;5073851;28;20455;-62
2020/12/12 06:21:33;;;;;;;5.73;5.23;;;;;;;5.67;96.58;94270.84;5075243;28;20423;-62
2020/12/12 06:23:59;;;;;;;5.63;4.87;;;;;;;5.68;96.01;94272.44;5073891;28;20412;-63
2020/12/12 06:27:14;;;;;;;10.07;7.20;;;;;;;5.64;97.38;94271.34;5081006;28;20502;-63
2020/12/12 06:29:43;;;;;;;19.10;12.13;;;;;;;5.96;95.75;94277.38;5084787;28;20472;-63
2020/12/12 06:32:13;;;;;;;5.07;4.20;;;;;;;5.80;95.13;94283.47;5073343;28;20420;-63
2020/12/12 06:34:49;;;;;;;5.30;4.80;;;;;;;5.34;97.44;94286.69;5080646;28;20416;-63
2020/12/12 06:37:34;;;;;;;6.30;4.80;;;;;;;5.51;97.58;94284.75;5093748;28;20408;-62
2020/12/12 06:40:11;;;;;;;5.83;5.00;;;;;;;5.33;98.21;94279.88;5093822;28;20459;-64
2020/12/12 06:42:46;;;;;;;18.43;9.83;;;;;;;5.59;97.32;94288.75;5093961;28;20433;-64
2020/12/12 06:45:21;;;;;;;6.87;6.03;;;;;;;5.69;96.02;94288.84;5094097;28;20929;-63
2020/12/12 06:47:51;;;;;;;8.43;5.33;;;;;;;5.61;96.86;94295.28;5078041;28;20434;-65
2020/12/12 06:50:24;;;;;;;6.13;5.33;;;;;;;5.64;97.12;94294.78;5073561;28;20470;-65
2020/12/12 06:52:50;;;;;;;5.10;4.70;;;;;;;5.95;95.33;94299.28;5073800;28;20404;-64
2020/12/12 06:55:18;;;;;;;9.10;6.43;;;;;;;5.89;95.76;94300.25;5073281;28;20419;-66
2020/12/12 06:57:46;;;;;;;5.80;5.20;;;;;;;5.86;95.49;94299.97;5073311;28;20900;-66
2020/12/12 07:00:28;;;;;;;7.80;6.57;;;;;;;5.75;96.51;94304.28;5073468;28;21049;-64
2020/12/12 07:02:54;;;;;;;7.53;6.43;;;;;;;5.93;94.87;94309.16;5073667;28;20850;-64
2020/12/12 07:05:22;;;;;;;6.30;5.70;;;;;;;6.02;94.77;94315.50;5073411;28;20405;-65
2020/12/12 07:07:48;;;;;;;6.10;5.50;;;;;;;6.02;94.40;94318.09;5073040;28;20470;-65
2020/12/12 07:10:13;;;;;;;6.27;5.63;;;;;;;6.14;93.93;94321.31;5072858;28;20441;-63
2020/12/12 07:12:39;;;;;;;6.97;6.27;;;;;;;5.99;93.93;94323.03;5073557;28;20558;-66
2020/12/12 07:15:05;;;;;;;6.83;6.17;;;;;;;5.95;94.27;94330.56;5077134;28;20524;-65
2020/12/12 07:17:33;;;;;;;7.20;6.00;;;;;;;5.95;94.39;94338.38;5073007;28;20659;-64
2020/12/12 07:19:59;;;;;;;5.53;5.03;;;;;;;5.78;95.38;94340.25;5073547;28;20609;-66
2020/12/12 07:22:26;;;;;;;6.10;5.50;;;;;;;5.99;94.51;94342.06;5073282;28;20428;-66
2020/12/12 07:24:53;;;;;;;7.13;5.80;;;;;;;5.85;94.50;94335.66;5073057;28;20417;-65
2020/12/12 07:27:18;;;;;;;7.40;5.40;;;;;;;5.81;95.76;94339.78;5072305;28;20923;-64
2020/12/12 07:29:44;;;;;;;5.93;5.27;;;;;;;5.89;95.16;94339.34;5076826;28;20489;-65
2020/12/12 07:32:09;;;;;;;5.73;5.03;;;;;;;5.77;95.74;94353.53;5073158;28;20528;-65
2020/12/12 07:34:35;;;;;;;6.63;5.60;;;;;;;5.85;95.34;94347.91;5073078;28;20671;-66
2020/12/12 07:37:05;;;;;;;6.27;5.30;;;;;;;6.07;94.95;94343.41;5072739;28;20169;-64
2020/12/12 07:39:42;;;;;;;6.00;5.40;;;;;;;5.87;96.35;94354.44;5072783;28;20206;-66
2020/12/12 07:42:10;;;;;;;5.77;5.17;;;;;;;5.72;95.89;94361.31;5074555;28;20416;-64
2020/12/12 07:44:52;;;;;;;6.43;5.37;;;;;;;5.78;96.08;94360.31;5074956;28;20423;-66
2020/12/12 07:47:17;;;;;;;5.80;5.20;;;;;;;5.91;95.98;94367.75;5072690;28;20812;-63
2020/12/12 07:49:43;;;;;;;5.90;5.17;;;;;;;5.97;95.52;94364.97;5072922;28;20436;-65
2020/12/12 07:52:11;;;;;;;10.17;6.10;;;;;;;6.06;94.72;94362.72;5073292;28;20178;-66
2020/12/12 07:54:45;;;;;;;6.00;5.50;;;;;;;6.11;93.92;94365.34;5072700;28;20659;-64
2020/12/12 07:57:12;;;;;;;6.40;5.80;;;;;;;6.03;94.39;94382.22;5072904;28;20456;-64
2020/12/12 07:59:39;;;;;;;6.50;4.70;;;;;;;5.95;94.37;94379.28;5072722;28;20825;-66
2020/12/12 08:02:06;;;;;;;7.13;5.93;;;;;;;5.92;94.89;94382.38;5072942;28;20488;-65
2020/12/12 08:04:32;;;;;;;6.00;5.40;;;;;;;6.09;93.53;94381.25;5071540;28;20771;-63
2020/12/12 08:07:07;;;;;;;6.10;5.40;;;;;;;6.00;94.90;94390.53;5072453;28;20416;-61
2020/12/12 08:09:33;;;;;;;6.43;5.83;;;;;;;5.94;95.60;94394.13;5072457;28;20985;-61
2020/12/12 08:12:00;;;;;;;7.23;6.20;;;;;;;5.82;96.08;94393.44;5073711;28;20425;-61
2020/12/12 08:14:28;;;;;;;7.53;5.47;;;;;;;5.87;95.86;94395.38;5072366;28;20193;-61
2020/12/12 08:17:00;;;;;;;7.03;5.80;;;;;;;5.88;95.49;94402.94;5072217;28;20471;-60
2020/12/12 08:19:28;;;;;;;6.10;4.70;;;;;;;6.01;94.42;94402.56;5073608;28;20470;-61
2020/12/12 08:22:16;;;;;;;6.10;5.03;;;;;;;6.22;93.87;94406.91;5072764;28;20777;-62
2020/12/12 08:24:43;;;;;;;5.90;5.20;;;;;;;6.10;94.26;94406.28;5073609;28;20409;-61
2020/12/12 08:27:15;;;;;;;5.60;5.00;;;;;;;6.14;94.62;94412.56;5092299;28;20443;-60
2020/12/12 08:29:43;;;;;;;8.10;5.70;;;;;;;6.05;94.42;94414.03;5078237;28;20449;-60
2020/12/12 08:32:08;;;;;;;6.10;5.10;;;;;;;6.11;94.46;94414.88;5072123;28;20427;-60
2020/12/12 08:34:34;;;;;;;5.30;4.80;;;;;;;6.08;94.80;94416.19;5072186;28;20432;-60
2020/12/12 08:36:59;;;;;;;6.07;5.50;;;;;;;6.09;94.80;94422.16;5072153;28;20170;-60
2020/12/12 08:39:26;;;;;;;5.63;4.83;;;;;;;6.22;95.18;94426.97;5079136;28;20293;-63
2020/12/12 08:41:51;;;;;;;5.97;5.27;;;;;;;6.10;94.84;94432.38;5075999;28;20200;-64
2020/12/12 08:44:23;;;;;;;5.70;5.10;;;;;;;5.82;96.99;94432.53;5076291;28;20409;-64
2020/12/12 08:46:53;;;;;;;6.13;5.53;;;;;;;6.10;96.56;94439.38;5075806;28;20178;-62
2020/12/12 08:49:19;;;;;;;6.73;5.60;;;;;;;6.03;96.61;94444.00;5075497;28;20444;-61
2020/12/12 08:51:51;;;;;;;5.53;4.90;;;;;;;6.03;97.17;94439.56;5075897;28;20412;-60
2020/12/12 08:54:16;;;;;;;7.30;5.70;;;;;;;6.13;96.49;94449.31;5075396;28;20425;-60
2020/12/12 08:56:41;;;;;;;5.70;5.20;;;;;;;5.87;97.69;94456.06;5075495;28;20442;-60
2020/12/12 08:59:18;;;;;;;6.70;5.63;;;;;;;6.13;97.51;94465.75;5074391;28;20206;-61
2020/12/12 09:01:44;;;;;;;7.17;5.67;;;;;;;5.97;97.94;94450.97;5075969;28;20171;-64
2020/12/12 09:04:09;;;;;;;8.37;5.60;;;;;;;6.35;95.97;94454.47;5075745;28;20432;-61
2020/12/12 09:06:40;;;;;;;7.07;5.97;;;;;;;6.28;96.78;94461.72;5076699;28;20268;-62
2020/12/12 09:09:24;;;;;;;6.20;5.60;;;;;;;6.28;96.59;94461.72;5088806;28;20273;-64
2020/12/12 09:12:07;;;;;;;6.17;5.50;;;;;;;6.22;96.51;94474.72;5075770;28;20425;-63
2020/12/12 09:14:35;;;;;;;6.33;5.10;;;;;;;6.36;96.55;94469.88;5075496;28;20907;-62
2020/12/12 09:17:06;;;;;;;6.53;5.63;;;;;;;6.76;95.20;94469.47;5075147;28;20419;-62
2020/12/12 09:19:33;;;;;;;6.33;5.73;;;;;;;6.63;95.87;94483.69;5074022;28;20534;-61
2020/12/12 09:21:59;;;;;;;5.90;5.30;;;;;;;6.94;94.30;94482.94;5082669;28;20453;-61
2020/12/12 09:24:25;;;;;;;12.30;8.93;;;;;;;7.15;93.55;94491.72;5081956;28;20918;-62
2020/12/12 09:26:55;;;;;;;8.03;6.33;;;;;;;7.32;91.41;94487.91;5074839;28;20171;-62
2020/12/12 09:29:22;;;;;;;5.90;5.30;;;;;;;6.90;93.77;94489.66;5074790;28;20445;-62
2020/12/12 09:31:51;;;;;;;5.57;4.90;;;;;;;6.80;94.43;94492.22;5078802;28;20531;-61
2020/12/12 09:34:18;;;;;;;4.30;3.70;;;;;;;6.60;94.44;94499.06;5075003;28;20410;-61
2020/12/12 09:36:44;;;;;;;4.37;4.00;;;;;;;6.66;94.55;94493.66;5074748;28;20949;-62
2020/12/12 09:39:09;;;;;;;7.90;7.10;;;;;;;6.82;93.67;94497.97;5074638;28;20466;-62
2020/12/12 09:41:35;;;;;;;5.33;4.83;;;;;;;6.76;93.57;94501.56;5074899;28;20678;-62
2020/12/12 09:44:00;;;;;;;4.53;4.13;;;;;;;6.81;93.95;94511.28;5074412;28;20257;-64
2020/12/12 09:46:26;;;;;;;4.60;4.20;;;;;;;6.93;93.61;94510.06;5092321;28;20667;-65
2020/12/12 09:48:51;;;;;;;9.03;6.90;;;;;;;6.97;93.43;94520.81;5085141;28;20186;-64
2020/12/12 09:51:18;;;;;;;5.80;5.20;;;;;;;7.10;92.88;94515.94;5074741;28;20251;-61
2020/12/12 09:53:46;;;;;;;8.63;6.60;;;;;;;6.91;92.31;94522.59;5074752;28;20171;-62
2020/12/12 09:56:16;;;;;;;4.10;3.70;;;;;;;6.81;93.23;94529.53;5074552;28;20908;-62
2020/12/12 09:58:44;;;;;;;6.57;4.43;;;;;;;6.73;94.09;94524.75;5074265;28;20462;-61
2020/12/12 10:01:11;;;;;;;5.20;3.77;;;;;;;6.39;95.12;94524.16;5075516;28;20769;-61
2020/12/12 10:03:36;;;;;;;4.30;3.90;;;;;;;6.63;94.25;94524.69;5074351;28;20425;-61
2020/12/12 10:06:02;;;;;;;6.23;4.63;;;;;;;6.75;93.18;94527.91;5078580;28;20427;-64
2020/12/12 10:08:27;;;;;;;5.17;4.67;;;;;;;6.95;93.97;94530.72;5073669;28;20257;-62
2020/12/12 10:10:53;;;;;;;4.90;4.30;;;;;;;7.03;92.53;94535.47;5074417;28;20661;-67
2020/12/12 10:13:19;;;;;;;5.40;4.90;;;;;;;6.96;94.70;94527.06;5069932;28;20170;-69
2020/12/12 10:15:44;;;;;;;4.70;3.90;;;;;;;7.07;93.13;94539.16;5071876;28;20697;-66
2020/12/12 10:18:10;;;;;;;4.40;3.80;;;;;;;6.80;94.27;94527.94;5068938;28;20492;-68
2020/12/12 10:20:38;;;;;;;4.10;3.70;;;;;;;6.96;93.12;94534.88;5070604;28;20239;-67
2020/12/12 10:23:04;;;;;;;3.00;2.80;;;;;;;7.12;92.30;94539.97;5069836;28;20171;-67
2020/12/12 10:25:30;;;;;;;3.13;2.93;;;;;;;7.13;92.60;94533.75;5070701;28;20426;-68
2020/12/12 10:27:56;;;;;;;2.97;2.77;;;;;;;7.18;91.72;94540.81;5069792;28;20804;-68
2020/12/12 10:30:23;;;;;;;3.93;3.27;;;;;;;7.22;91.37;94545.31;5086570;28;20203;-65
2020/12/12 10:32:48;;;;;;;3.93;3.63;;;;;;;7.27;92.19;94550.56;5090627;28;21030;-68
2020/12/12 10:35:14;;;;;;;3.90;3.53;;;;;;;7.05;92.43;94549.06;5088422;28;20417;-65
2020/12/12 10:37:39;;;;;;;3.17;2.97;;;;;;;7.17;92.40;94539.25;5090328;28;20178;-68
2020/12/12 10:40:21;;;;;;;4.13;3.27;;;;;;;7.26;92.62;94546.34;5090525;28;20218;-67
2020/12/12 10:42:47;;;;;;;4.27;3.50;;;;;;;7.22;92.66;94547.91;5082822;28;20272;-68
2020/12/12 10:45:13;;;;;;;3.63;3.33;;;;;;;7.14;92.24;94556.19;5070287;28;20937;-66
2020/12/12 10:47:39;;;;;;;5.50;2.70;;;;;;;7.23;92.48;94551.28;5069129;28;20262;-64
2020/12/12 10:50:06;;;;;;;3.00;2.67;;;;;;;7.34;91.61;94552.94;5070073;28;20520;-59
2020/12/12 10:52:32;;;;;;;3.33;3.13;;;;;;;7.26;92.20;94554.19;5070131;28;20195;-64
2020/12/12 10:54:57;;;;;;;3.17;2.97;;;;;;;7.34;92.64;94552.94;5070086;28;20413;-62
2020/12/12 10:57:23;;;;;;;3.57;3.27;;;;;;;7.60;91.44;94552.09;5073547;28;20225;-62
2020/12/12 10:59:48;;;;;;;3.23;2.93;;;;;;;7.51;91.46;94553.63;5069295;28;20216;-59
2020/12/12 11:02:14;;;;;;;4.70;3.67;;;;;;;7.53;91.45;94550.75;5068089;28;20629;-62
2020/12/12 11:04:40;;;;;;;3.87;3.57;;;;;;;7.49;90.73;94562.72;5069863;28;20183;-64
2020/12/12 11:07:06;;;;;;;3.77;3.47;;;;;;;7.60;91.12;94567.78;5069307;28;20794;-66
2020/12/12 11:09:32;;;;;;;3.90;3.60;;;;;;;7.59;90.96;94566.19;5069769;28;20433;-63
2020/12/12 11:11:58;;;;;;;3.63;2.97;;;;;;;7.46;90.96;94569.25;5070305;28;20625;-63
2020/12/12 11:14:24;;;;;;;3.83;3.53;;;;;;;7.62;91.44;94570.94;5069889;28;20476;-67
2020/12/12 11:16:51;;;;;;;7.80;6.20;;;;;;;7.62;91.78;94563.09;5069439;28;20192;-62
2020/12/12 11:19:17;;;;;;;4.00;3.60;;;;;;;7.36;92.87;94571.78;5069519;28;20538;-66
2020/12/12 11:21:43;;;;;;;3.57;3.27;;;;;;;7.16;95.28;94571.59;5069521;28;20509;-66
2020/12/12 11:24:08;;;;;;;4.57;3.20;;;;;;;7.40;94.60;94566.84;5069280;28;20177;-64
2020/12/12 11:26:34;;;;;;;3.97;3.60;;;;;;;7.51;94.53;94565.88;5069097;28;20911;-66
2020/12/12 11:28:59;;;;;;;7.30;4.03;;;;;;;7.67;92.86;94570.16;5069579;28;20214;-66
2020/12/12 11:31:25;;;;;;;5.13;4.60;;;;;;;7.62;93.33;94564.91;5069660;28;20654;-63
2020/12/12 11:33:58;;;;;;;4.10;3.70;;;;;;;7.44;94.65;94571.34;5070588;28;20191;-67
2020/12/12 11:36:39;;;;;;;3.97;3.57;;;;;;;7.37;95.36;94573.38;5068817;28;20170;-63
2020/12/12 11:41:53;;;;;;;5.00;4.60;;;;;;;7.40;95.80;94585.91;5072939;28;20921;-66
2020/12/12 11:46:48;;;;;;;4.63;4.20;;;;;;;7.57;94.73;94581.38;5072557;28;20440;-67